createdAt,value
2022-10-08T00:00:15.221Z,13.38
2022-10-08T00:01:15.440Z,13.38
2022-10-08T00:02:15.611Z,13.38
2022-10-08T00:03:15.750Z,13.38
2022-10-08T00:04:15.981Z,13.35
2022-10-08T00:05:16.079Z,13.38
2022-10-08T00:06:16.253Z,13.37
2022-10-08T00:07:16.411Z,13.35
2022-10-08T00:08:16.571Z,13.37
2022-10-08T00:09:16.750Z,13.37
2022-10-08T00:10:16.903Z,13.35
2022-10-08T00:11:17.110Z,13.35
2022-10-08T00:12:17.261Z,13.33
2022-10-08T00:13:17.460Z,13.33
2022-10-08T00:14:17.621Z,13.33
2022-10-08T00:15:17.782Z,13.31
2022-10-08T00:16:18.051Z,13.31
2022-10-08T00:17:18.120Z,13.30
2022-10-08T00:18:18.280Z,13.27
2022-10-08T00:19:18.440Z,13.28
2022-10-08T00:20:18.591Z,13.27
2022-10-08T00:21:18.800Z,13.28
2022-10-08T00:22:18.960Z,13.25
2022-10-08T00:23:19.160Z,13.23
2022-10-08T00:24:19.310Z,13.22
2022-10-08T00:25:19.478Z,13.22
2022-10-08T00:26:19.650Z,13.23
2022-10-08T00:27:19.820Z,13.19
2022-10-08T00:28:20.026Z,13.22
2022-10-08T00:29:20.160Z,13.20
2022-10-08T00:30:20.330Z,13.18
2022-10-08T00:31:20.555Z,13.16
2022-10-08T00:32:20.663Z,13.18
2022-10-08T00:33:20.831Z,13.15
2022-10-08T00:34:21.014Z,13.13
2022-10-08T00:35:21.179Z,13.13
2022-10-08T00:36:21.369Z,13.13
2022-10-08T00:37:21.541Z,13.11
2022-10-08T00:38:21.711Z,13.11
2022-10-08T00:39:21.906Z,13.09
2022-10-08T00:40:22.060Z,13.11
2022-10-08T00:41:22.249Z,13.09
2022-10-08T00:42:22.389Z,13.08
2022-10-08T00:43:25.967Z,13.09
2022-10-08T00:44:22.741Z,13.08
2022-10-08T00:45:22.947Z,13.08
2022-10-08T00:46:23.109Z,13.08
2022-10-08T00:47:23.281Z,13.05
2022-10-08T00:48:23.448Z,13.04
2022-10-08T00:49:23.629Z,13.08
2022-10-08T00:50:23.791Z,13.04
2022-10-08T00:51:23.971Z,13.05
2022-10-08T00:52:24.100Z,13.04
2022-10-08T00:53:24.259Z,13.05
2022-10-08T00:54:24.418Z,13.05
2022-10-08T00:55:24.588Z,13.04
2022-10-08T00:56:24.771Z,13.05
2022-10-08T00:57:24.920Z,13.05
2022-10-08T00:58:25.088Z,13.05
2022-10-08T00:59:25.247Z,13.08
2022-10-08T01:00:25.426Z,13.04
2022-10-08T01:01:25.665Z,13.04
2022-10-08T01:02:25.826Z,13.05
2022-10-08T01:03:25.968Z,13.04
2022-10-08T01:04:26.143Z,13.04
2022-10-08T01:05:26.298Z,13.04
2022-10-08T01:06:26.479Z,13.04
2022-10-08T01:07:26.616Z,13.05
2022-10-08T01:08:26.799Z,13.03
2022-10-08T01:09:26.958Z,13.03
2022-10-08T01:10:27.129Z,13.03
2022-10-08T01:11:27.332Z,13.01
2022-10-08T01:12:27.478Z,13.01
2022-10-08T01:13:27.653Z,13.03
2022-10-08T01:14:27.801Z,13.03
2022-10-08T01:15:27.961Z,13.05
2022-10-08T01:16:28.170Z,13.09
2022-10-08T01:17:28.277Z,13.08
2022-10-08T01:18:28.438Z,13.12
2022-10-08T01:19:28.597Z,13.12
2022-10-08T01:20:28.796Z,13.13
2022-10-08T01:21:28.968Z,13.15
2022-10-08T01:22:29.146Z,13.16
2022-10-08T01:23:29.298Z,13.16
2022-10-08T01:24:29.467Z,13.18
2022-10-08T01:25:29.628Z,13.18
2022-10-08T01:26:29.809Z,13.19
2022-10-08T01:27:29.969Z,13.22
2022-10-08T01:28:30.251Z,13.22
2022-10-08T01:29:30.328Z,13.23
2022-10-08T01:30:30.488Z,13.25
2022-10-08T01:31:30.734Z,13.25
2022-10-08T01:32:30.815Z,13.25
2022-10-08T01:33:30.969Z,13.28
2022-10-08T01:34:31.169Z,13.28
2022-10-08T01:35:31.319Z,13.31
2022-10-08T01:36:31.529Z,13.35
2022-10-08T01:37:31.687Z,13.37
2022-10-08T01:38:31.850Z,13.38
2022-10-08T01:39:32.008Z,13.41
2022-10-08T01:40:32.167Z,13.42
2022-10-08T01:41:32.365Z,13.44
2022-10-08T01:42:32.527Z,13.47
2022-10-08T01:43:32.679Z,13.50
2022-10-08T01:44:32.876Z,13.52
2022-10-08T01:45:33.130Z,13.52
2022-10-08T01:46:33.207Z,13.56
2022-10-08T01:47:33.367Z,13.57
2022-10-08T01:48:33.527Z,13.59
2022-10-08T01:49:33.692Z,13.59
2022-10-08T01:50:33.897Z,13.62
2022-10-08T01:51:34.067Z,13.63
2022-10-08T01:52:34.229Z,13.67
2022-10-08T01:53:34.394Z,13.68
2022-10-08T01:54:34.581Z,13.68
2022-10-08T01:55:34.767Z,13.68
2022-10-08T01:56:34.907Z,13.71
2022-10-08T01:57:35.068Z,13.72
2022-10-08T01:58:35.236Z,13.74
2022-10-08T01:59:35.387Z,13.75
2022-10-08T02:00:35.587Z,13.77
2022-10-08T02:01:35.800Z,13.78
2022-10-08T02:02:35.987Z,13.81
2022-10-08T02:03:36.116Z,13.79
2022-10-08T02:04:36.276Z,13.79
2022-10-08T02:05:36.456Z,13.81
2022-10-08T02:06:36.617Z,13.83
2022-10-08T02:07:36.777Z,13.83
2022-10-08T02:08:36.966Z,13.85
2022-10-08T02:09:37.128Z,13.83
2022-10-08T02:10:37.306Z,13.85
2022-10-08T02:11:37.466Z,13.86
2022-10-08T02:12:37.627Z,13.86
2022-10-08T02:13:37.794Z,13.87
2022-10-08T02:14:37.953Z,13.89
2022-10-08T02:15:38.136Z,13.89
2022-10-08T02:16:38.316Z,13.90
2022-10-08T02:17:38.458Z,13.90
2022-10-08T02:18:38.617Z,13.89
2022-10-08T02:19:38.787Z,13.90
2022-10-08T02:20:38.966Z,13.92
2022-10-08T02:21:39.126Z,13.92
2022-10-08T02:22:39.287Z,13.93
2022-10-08T02:23:39.446Z,13.95
2022-10-08T02:24:39.607Z,13.93
2022-10-08T02:25:39.788Z,13.95
2022-10-08T02:26:39.963Z,13.97
2022-10-08T02:27:40.115Z,13.96
2022-10-08T02:28:40.302Z,13.99
2022-10-08T02:29:40.456Z,13.96
2022-10-08T02:30:40.678Z,13.97
2022-10-08T02:31:40.945Z,13.96
2022-10-08T02:32:41.025Z,13.97
2022-10-08T02:33:41.177Z,13.96
2022-10-08T02:34:41.338Z,13.99
2022-10-08T02:35:41.547Z,13.99
2022-10-08T02:36:41.676Z,13.99
2022-10-08T02:37:41.835Z,13.99
2022-10-08T02:38:41.995Z,14.00
2022-10-08T02:39:42.159Z,14.00
2022-10-08T02:40:42.346Z,14.03
2022-10-08T02:41:42.505Z,14.03
2022-10-08T02:42:42.665Z,14.04
2022-10-08T02:43:42.828Z,14.04
2022-10-08T02:44:43.007Z,14.05
2022-10-08T02:45:43.236Z,14.04
2022-10-08T02:46:43.326Z,14.05
2022-10-08T02:47:43.485Z,14.05
2022-10-08T02:48:43.685Z,14.07
2022-10-08T02:49:43.845Z,14.05
2022-10-08T02:50:44.034Z,14.08
2022-10-08T02:51:44.190Z,14.07
2022-10-08T02:52:44.650Z,14.07
2022-10-08T02:53:44.566Z,14.07
2022-10-08T02:54:44.731Z,14.07
2022-10-08T02:55:44.898Z,14.05
2022-10-08T02:56:45.056Z,14.05
2022-10-08T02:57:45.215Z,14.00
2022-10-08T02:58:45.414Z,14.03
2022-10-08T02:59:45.573Z,14.04
2022-10-08T03:00:45.778Z,14.03
2022-10-08T03:01:45.935Z,14.05
2022-10-08T03:02:46.597Z,14.04
2022-10-08T03:03:46.285Z,14.05
2022-10-08T03:04:46.484Z,14.04
2022-10-08T03:05:46.657Z,14.07
2022-10-08T03:06:46.823Z,14.10
2022-10-08T03:07:46.975Z,14.11
2022-10-08T03:08:47.166Z,14.11
2022-10-08T03:09:47.368Z,14.14
2022-10-08T03:10:47.531Z,14.15
2022-10-08T03:11:47.684Z,14.17
2022-10-08T03:12:48.152Z,14.15
2022-10-08T03:13:48.037Z,14.15
2022-10-08T03:14:48.242Z,14.15
2022-10-08T03:15:48.375Z,14.18
2022-10-08T03:16:48.642Z,14.18
2022-10-08T03:17:48.706Z,14.20
2022-10-08T03:18:48.905Z,14.18
2022-10-08T03:19:49.074Z,14.18
2022-10-08T03:20:49.235Z,14.22
2022-10-08T03:21:49.394Z,14.23
2022-10-08T03:22:49.836Z,14.22
2022-10-08T03:23:49.723Z,14.22
2022-10-08T03:24:53.718Z,14.23
2022-10-08T03:25:51.048Z,14.22
2022-10-08T03:26:50.242Z,14.22
2022-10-08T03:27:50.394Z,14.23
2022-10-08T03:28:50.554Z,14.25
2022-10-08T03:29:50.732Z,14.25
2022-10-08T03:30:50.976Z,14.26
2022-10-08T03:31:51.065Z,14.28
2022-10-08T03:32:51.224Z,14.30
2022-10-08T03:33:51.384Z,14.32
2022-10-08T03:34:51.594Z,14.32
2022-10-08T03:35:51.751Z,14.33
2022-10-08T03:36:51.944Z,14.36
2022-10-08T03:37:52.104Z,14.40
2022-10-08T03:38:52.272Z,14.41
2022-10-08T03:39:52.444Z,14.44
2022-10-08T03:40:52.613Z,14.47
2022-10-08T03:41:52.763Z,14.48
2022-10-08T03:42:52.956Z,14.48
2022-10-08T03:43:53.114Z,14.51
2022-10-08T03:44:53.294Z,14.53
2022-10-08T03:45:53.508Z,14.58
2022-10-08T03:46:53.646Z,14.60
2022-10-08T03:47:53.805Z,14.60
2022-10-08T03:48:54.004Z,14.65
2022-10-08T03:49:54.184Z,14.65
2022-10-08T03:50:54.345Z,14.69
2022-10-08T03:51:54.505Z,14.69
2022-10-08T03:52:54.676Z,14.70
2022-10-08T03:53:54.840Z,14.73
2022-10-08T03:54:55.020Z,14.77
2022-10-08T03:55:55.175Z,14.78
2022-10-08T03:56:55.339Z,14.78
2022-10-08T03:57:55.493Z,14.81
2022-10-08T03:58:55.654Z,14.82
2022-10-08T03:59:55.834Z,14.84
2022-10-08T04:00:56.016Z,14.85
2022-10-08T04:01:56.235Z,14.82
2022-10-08T04:02:56.472Z,14.84
2022-10-08T04:03:56.549Z,14.82
2022-10-08T04:04:56.724Z,14.84
2022-10-08T04:05:56.885Z,14.85
2022-10-08T04:06:57.080Z,14.84
2022-10-08T04:07:57.235Z,14.88
2022-10-08T04:08:57.393Z,14.81
2022-10-08T04:09:57.567Z,14.84
2022-10-08T04:10:57.723Z,14.85
2022-10-08T04:11:57.885Z,14.82
2022-10-08T04:12:58.046Z,14.84
2022-10-08T04:13:58.204Z,14.82
2022-10-08T04:14:58.382Z,14.79
2022-10-08T04:15:58.581Z,14.79
2022-10-08T04:16:58.714Z,14.79
2022-10-08T04:17:58.877Z,14.79
2022-10-08T04:18:59.045Z,14.78
2022-10-08T04:19:59.214Z,14.78
2022-10-08T04:20:59.384Z,14.73
2022-10-08T04:21:59.540Z,14.77
2022-10-08T04:22:59.701Z,14.73
2022-10-08T04:23:59.853Z,14.72
2022-10-08T04:25:00.070Z,14.72
2022-10-08T04:26:00.224Z,14.73
2022-10-08T04:27:00.384Z,14.73
2022-10-08T04:28:00.570Z,14.72
2022-10-08T04:29:00.734Z,14.70
2022-10-08T04:30:00.893Z,14.69
2022-10-08T04:31:01.102Z,14.69
2022-10-08T04:32:01.236Z,14.68
2022-10-08T04:33:01.394Z,14.66
2022-10-08T04:34:01.587Z,14.66
2022-10-08T04:35:01.743Z,14.65
2022-10-08T04:36:01.910Z,14.63
2022-10-08T04:37:02.061Z,14.63
2022-10-08T04:38:02.214Z,14.65
2022-10-08T04:39:02.423Z,14.63
2022-10-08T04:40:02.592Z,14.60
2022-10-08T04:41:02.754Z,14.59
2022-10-08T04:42:02.919Z,14.59
2022-10-08T04:43:03.072Z,14.58
2022-10-08T04:44:03.253Z,14.59
2022-10-08T04:45:03.413Z,14.55
2022-10-08T04:46:03.642Z,14.54
2022-10-08T04:47:03.743Z,14.55
2022-10-08T04:48:03.902Z,14.54
2022-10-08T04:49:04.085Z,14.53
2022-10-08T04:50:04.244Z,14.51
2022-10-08T04:51:09.380Z,14.48
2022-10-08T04:52:05.594Z,14.47
2022-10-08T04:53:04.781Z,14.47
2022-10-08T04:54:04.954Z,14.44
2022-10-08T04:55:05.213Z,14.43
2022-10-08T04:56:05.304Z,14.41
2022-10-08T04:57:05.486Z,14.37
2022-10-08T04:58:05.634Z,14.35
2022-10-08T04:59:05.815Z,14.35
2022-10-08T05:00:18.377Z,14.35
2022-10-08T05:01:07.132Z,14.33
2022-10-08T05:02:06.372Z,14.32
2022-10-08T05:03:06.549Z,14.30
2022-10-08T05:04:06.662Z,14.26
2022-10-08T05:05:06.803Z,14.26
2022-10-08T05:06:06.983Z,14.26
2022-10-08T05:07:07.174Z,14.23
2022-10-08T05:08:07.352Z,14.22
2022-10-08T05:09:07.624Z,14.23
2022-10-08T05:10:07.717Z,14.25
2022-10-08T05:11:07.892Z,14.23
2022-10-08T05:12:08.073Z,14.23
2022-10-08T05:13:08.253Z,14.23
2022-10-08T05:14:08.452Z,14.25
2022-10-08T05:15:08.611Z,14.25
2022-10-08T05:16:08.875Z,14.26
2022-10-08T05:17:08.964Z,14.29
2022-10-08T05:18:09.153Z,14.29
2022-10-08T05:19:09.322Z,14.30
2022-10-08T05:20:09.504Z,14.32
2022-10-08T05:21:09.674Z,14.32
2022-10-08T05:22:09.853Z,14.33
2022-10-08T05:23:10.033Z,14.35
2022-10-08T05:24:10.231Z,14.36
2022-10-08T05:25:10.375Z,14.36
2022-10-08T05:26:10.553Z,14.36
2022-10-08T05:27:10.742Z,14.35
2022-10-08T05:28:10.950Z,14.36
2022-10-08T05:29:11.142Z,14.36
2022-10-08T05:30:11.289Z,14.37
2022-10-08T05:31:11.510Z,14.36
2022-10-08T05:32:11.634Z,14.40
2022-10-08T05:33:11.781Z,14.37
2022-10-08T05:34:11.979Z,14.37
2022-10-08T05:35:12.112Z,14.37
2022-10-08T05:36:12.302Z,14.41
2022-10-08T05:37:12.463Z,14.41
2022-10-08T05:38:12.653Z,14.41
2022-10-08T05:39:12.823Z,14.43
2022-10-08T05:40:12.964Z,14.44
2022-10-08T05:41:13.152Z,14.47
2022-10-08T05:42:13.332Z,14.47
2022-10-08T05:43:13.512Z,14.48
2022-10-08T05:44:13.742Z,14.48
2022-10-08T05:45:13.892Z,14.45
2022-10-08T05:46:14.091Z,14.48
2022-10-08T05:47:14.197Z,14.50
2022-10-08T05:48:14.369Z,14.51
2022-10-08T05:49:14.564Z,14.50
2022-10-08T05:50:14.723Z,14.53
2022-10-08T05:51:14.902Z,14.54
2022-10-08T05:52:15.072Z,14.53
2022-10-08T05:53:15.251Z,14.54
2022-10-08T05:54:15.442Z,14.55
2022-10-08T05:55:15.622Z,14.55
2022-10-08T05:56:15.822Z,14.55
2022-10-08T05:57:15.982Z,14.58
2022-10-08T05:58:16.182Z,14.59
2022-10-08T05:59:16.354Z,14.59
2022-10-08T06:00:16.524Z,14.59
2022-10-08T06:01:16.686Z,14.62
2022-10-08T06:02:16.842Z,14.59
2022-10-08T06:03:16.992Z,14.60
2022-10-08T06:04:17.273Z,14.60
2022-10-08T06:05:17.372Z,14.60
2022-10-08T06:06:17.563Z,14.59
2022-10-08T06:07:17.772Z,14.59
2022-10-08T06:08:17.925Z,14.60
2022-10-08T06:09:18.116Z,14.59
2022-10-08T06:10:18.271Z,14.58
2022-10-08T06:11:18.421Z,14.59
2022-10-08T06:12:18.581Z,14.60
2022-10-08T06:13:18.761Z,14.60
2022-10-08T06:14:18.952Z,14.59
2022-10-08T06:15:19.111Z,14.60
2022-10-08T06:16:19.339Z,14.60
2022-10-08T06:17:19.462Z,14.62
2022-10-08T06:18:19.625Z,14.60
2022-10-08T06:19:19.802Z,14.62
2022-10-08T06:20:19.970Z,14.60
2022-10-08T06:21:20.136Z,14.62
2022-10-08T06:22:20.312Z,14.63
2022-10-08T06:23:20.477Z,14.62
2022-10-08T06:24:20.681Z,14.63
2022-10-08T06:25:20.791Z,14.66
2022-10-08T06:26:20.970Z,14.65
2022-10-08T06:27:21.151Z,14.66
2022-10-08T06:28:21.364Z,14.66
2022-10-08T06:29:21.501Z,14.68
2022-10-08T06:30:21.659Z,14.69
2022-10-08T06:31:21.866Z,14.69
2022-10-08T06:32:22.009Z,14.69
2022-10-08T06:33:22.190Z,14.72
2022-10-08T06:34:22.435Z,14.72
2022-10-08T06:35:22.552Z,14.73
2022-10-08T06:36:22.731Z,14.77
2022-10-08T06:37:22.914Z,14.78
2022-10-08T06:38:23.091Z,14.81
2022-10-08T06:39:23.290Z,14.84
2022-10-08T06:40:23.442Z,14.85
2022-10-08T06:41:23.599Z,14.89
2022-10-08T06:42:23.779Z,14.89
2022-10-08T06:43:23.930Z,14.91
2022-10-08T06:44:24.122Z,14.94
2022-10-08T06:45:24.271Z,14.96
2022-10-08T06:46:24.513Z,15.00
2022-10-08T06:47:24.612Z,15.02
2022-10-08T06:48:24.810Z,15.04
2022-10-08T06:49:24.962Z,15.09
2022-10-08T06:50:25.140Z,15.11
2022-10-08T06:51:25.320Z,15.17
2022-10-08T06:52:25.512Z,15.19
2022-10-08T06:53:25.702Z,15.22
2022-10-08T06:54:25.853Z,15.25
2022-10-08T06:55:26.001Z,15.29
2022-10-08T06:56:26.190Z,15.35
2022-10-08T06:57:26.376Z,15.36
2022-10-08T06:58:26.560Z,15.37
2022-10-08T06:59:26.740Z,15.42
2022-10-08T07:00:26.965Z,15.40
2022-10-08T07:01:31.950Z,15.40
2022-10-08T07:02:28.335Z,15.42
2022-10-08T07:03:27.431Z,15.42
2022-10-08T07:04:27.592Z,15.42
2022-10-08T07:05:27.758Z,15.42
2022-10-08T07:06:27.940Z,15.46
2022-10-08T07:07:28.136Z,15.49
2022-10-08T07:08:28.310Z,15.52
2022-10-08T07:09:28.450Z,15.57
2022-10-08T07:10:33.125Z,15.59
2022-10-08T07:11:29.797Z,15.62
2022-10-08T07:12:28.981Z,15.68
2022-10-08T07:13:29.181Z,15.72
2022-10-08T07:14:29.371Z,15.77
2022-10-08T07:15:29.531Z,15.80
2022-10-08T07:16:29.790Z,15.84
2022-10-08T07:17:29.899Z,15.91
2022-10-08T07:18:30.104Z,15.98
2022-10-08T07:19:30.271Z,16.08
2022-10-08T07:20:30.451Z,16.16
2022-10-08T07:21:30.643Z,16.26
2022-10-08T07:22:30.831Z,16.32
2022-10-08T07:23:31.011Z,16.56
2022-10-08T07:24:31.165Z,16.86
2022-10-08T07:25:31.341Z,17.16
2022-10-08T07:26:31.535Z,17.49
2022-10-08T07:27:31.710Z,17.64
2022-10-08T07:28:31.965Z,17.65
2022-10-08T07:29:32.051Z,17.59
2022-10-08T07:30:32.241Z,17.57
2022-10-08T07:31:32.517Z,17.52
2022-10-08T07:32:32.581Z,17.52
2022-10-08T07:33:32.778Z,17.54
2022-10-08T07:34:32.920Z,17.59
2022-10-08T07:35:33.120Z,17.74
2022-10-08T07:36:33.272Z,17.86
2022-10-08T07:37:33.460Z,17.95
2022-10-08T07:38:33.669Z,18.00
2022-10-08T07:39:33.811Z,18.13
2022-10-08T07:40:33.999Z,18.38
2022-10-08T07:41:34.180Z,18.63
2022-10-08T07:42:34.368Z,18.84
2022-10-08T07:43:34.569Z,19.02
2022-10-08T07:44:34.712Z,19.14
2022-10-08T07:45:34.936Z,19.21
2022-10-08T07:46:35.077Z,19.24
2022-10-08T07:47:35.251Z,19.30
2022-10-08T07:48:35.452Z,19.44
2022-10-08T07:49:35.628Z,19.54
2022-10-08T07:50:35.766Z,19.66
2022-10-08T07:51:35.941Z,19.71
2022-10-08T07:52:36.150Z,19.70
2022-10-08T07:53:36.302Z,19.67
2022-10-08T07:54:36.441Z,19.52
2022-10-08T07:55:36.636Z,19.49
2022-10-08T07:56:36.823Z,19.56
2022-10-08T07:57:37.057Z,19.69
2022-10-08T07:58:37.172Z,19.84
2022-10-08T07:59:37.322Z,19.95
2022-10-08T08:00:37.540Z,20.00
2022-10-08T08:01:37.673Z,20.18
2022-10-08T08:02:37.908Z,20.62
2022-10-08T08:03:38.005Z,21.18
2022-10-08T08:04:38.181Z,21.52
2022-10-08T08:05:38.324Z,21.85
2022-10-08T08:06:38.504Z,22.33
2022-10-08T08:07:38.683Z,22.98
2022-10-08T08:08:38.842Z,23.66
2022-10-08T08:09:38.992Z,24.38
2022-10-08T08:10:39.172Z,25.07
2022-10-08T08:11:39.342Z,25.66
2022-10-08T08:12:39.555Z,26.18
2022-10-08T08:13:39.683Z,26.58
2022-10-08T08:14:39.874Z,26.95
2022-10-08T08:15:40.053Z,27.30
2022-10-08T08:16:40.317Z,27.65
2022-10-08T08:17:40.413Z,28.00
2022-10-08T08:18:40.566Z,28.30
2022-10-08T08:19:40.734Z,28.62
2022-10-08T08:20:40.934Z,28.96
2022-10-08T08:21:41.104Z,29.19
2022-10-08T08:22:41.359Z,29.32
2022-10-08T08:23:41.467Z,29.49
2022-10-08T08:24:41.648Z,29.66
2022-10-08T08:25:41.814Z,29.76
2022-10-08T08:26:42.013Z,30.03
2022-10-08T08:27:42.214Z,30.35
2022-10-08T08:28:42.474Z,30.51
2022-10-08T08:29:42.526Z,30.73
2022-10-08T08:30:42.723Z,31.09
2022-10-08T08:31:42.930Z,31.39
2022-10-08T08:32:43.096Z,31.78
2022-10-08T08:33:43.243Z,32.01
2022-10-08T08:34:43.397Z,31.69
2022-10-08T08:35:43.556Z,30.97
2022-10-08T08:36:43.767Z,29.98
2022-10-08T08:37:43.946Z,29.24
2022-10-08T08:38:44.138Z,28.86
2022-10-08T08:39:44.330Z,28.35
2022-10-08T08:40:44.491Z,27.75
2022-10-08T08:41:44.658Z,27.32
2022-10-08T08:42:45.201Z,27.18
2022-10-08T08:43:45.024Z,27.36
2022-10-08T08:44:45.226Z,27.71
2022-10-08T08:45:47.127Z,28.38
2022-10-08T08:46:45.550Z,28.78
2022-10-08T08:47:45.746Z,28.57
2022-10-08T08:48:45.879Z,28.64
2022-10-08T08:49:46.077Z,29.12
2022-10-08T08:50:48.784Z,29.14
2022-10-08T08:51:46.461Z,28.84
2022-10-08T08:52:46.833Z,28.54
2022-10-08T08:53:46.797Z,28.10
2022-10-08T08:54:46.990Z,27.78
2022-10-08T08:55:47.140Z,27.48
2022-10-08T08:56:47.309Z,27.95
2022-10-08T08:57:47.502Z,28.74
2022-10-08T08:58:47.654Z,28.67
2022-10-08T08:59:47.820Z,28.47
2022-10-08T09:00:48.060Z,28.48
2022-10-08T09:01:48.178Z,28.29
2022-10-08T09:02:48.869Z,27.74
2022-10-08T09:03:48.583Z,27.14
2022-10-08T09:04:49.222Z,26.55
2022-10-08T09:05:48.896Z,25.96
2022-10-08T09:06:49.064Z,25.54
2022-10-08T09:07:49.252Z,25.18
2022-10-08T09:08:49.405Z,24.93
2022-10-08T09:09:49.582Z,24.63
2022-10-08T09:10:49.773Z,24.45
2022-10-08T09:11:49.943Z,24.35
2022-10-08T09:12:50.294Z,24.33
2022-10-08T09:13:50.273Z,24.20
2022-10-08T09:14:50.454Z,24.08
2022-10-08T09:15:50.636Z,24.06
2022-10-08T09:16:50.880Z,24.01
2022-10-08T09:17:51.013Z,23.99
2022-10-08T09:18:51.174Z,24.05
2022-10-08T09:19:51.335Z,24.11
2022-10-08T09:20:51.560Z,24.36
2022-10-08T09:21:51.683Z,24.77
2022-10-08T09:22:51.855Z,25.11
2022-10-08T09:23:52.044Z,25.40
2022-10-08T09:24:52.234Z,25.62
2022-10-08T09:25:52.411Z,26.34
2022-10-08T09:26:52.636Z,26.52
2022-10-08T09:27:52.759Z,27.10
2022-10-08T09:28:52.945Z,27.71
2022-10-08T09:29:53.105Z,27.71
2022-10-08T09:30:55.597Z,27.49
2022-10-08T09:31:54.464Z,27.26
2022-10-08T09:32:53.606Z,26.85
2022-10-08T09:33:53.809Z,26.45
2022-10-08T09:34:53.969Z,26.05
2022-10-08T09:35:54.152Z,25.83
2022-10-08T09:36:54.306Z,25.84
2022-10-08T09:37:54.488Z,26.18
2022-10-08T09:38:54.657Z,26.34
2022-10-08T09:39:54.847Z,26.41
2022-10-08T09:40:55.027Z,26.34
2022-10-08T09:41:55.224Z,26.16
2022-10-08T09:42:55.360Z,26.00
2022-10-08T09:43:55.537Z,25.87
2022-10-08T09:44:55.698Z,25.84
2022-10-08T09:45:55.900Z,25.81
2022-10-08T09:46:56.069Z,25.75
2022-10-08T09:47:56.228Z,25.63
2022-10-08T09:48:56.408Z,25.48
2022-10-08T09:49:56.599Z,25.35
2022-10-08T09:50:56.758Z,25.17
2022-10-08T09:51:56.976Z,24.98
2022-10-08T09:52:57.118Z,24.85
2022-10-08T09:53:57.299Z,24.66
2022-10-08T09:54:57.460Z,24.54
2022-10-08T09:55:57.637Z,24.48
2022-10-08T09:56:57.848Z,24.55
2022-10-08T09:57:57.971Z,24.55
2022-10-08T09:58:58.140Z,24.57
2022-10-08T09:59:58.320Z,24.51
2022-10-08T10:00:58.518Z,24.47
2022-10-08T10:01:58.689Z,24.40
2022-10-08T10:02:58.828Z,24.33
2022-10-08T10:03:59.058Z,24.17
2022-10-08T10:04:59.161Z,24.08
2022-10-08T10:05:59.350Z,24.02
2022-10-08T10:06:59.541Z,24.01
2022-10-08T10:07:59.709Z,23.96
2022-10-08T10:08:59.872Z,23.83
2022-10-08T10:10:00.052Z,23.71
2022-10-08T10:11:00.232Z,23.55
2022-10-08T10:12:00.433Z,23.43
2022-10-08T10:13:00.571Z,23.31
2022-10-08T10:14:00.763Z,23.17
2022-10-08T10:15:00.943Z,23.02
2022-10-08T10:16:01.122Z,22.87
2022-10-08T10:17:01.420Z,22.80
2022-10-08T10:18:01.491Z,22.76
2022-10-08T10:19:01.645Z,22.65
2022-10-08T10:20:01.812Z,22.57
2022-10-08T10:21:01.993Z,22.50
2022-10-08T10:22:02.162Z,22.48
2022-10-08T10:23:02.314Z,22.44
2022-10-08T10:24:02.472Z,22.39
2022-10-08T10:25:02.653Z,22.36
2022-10-08T10:26:06.354Z,22.36
2022-10-08T10:27:03.081Z,22.33
2022-10-08T10:28:03.241Z,22.26
2022-10-08T10:29:03.353Z,22.17
2022-10-08T10:30:03.544Z,22.11
2022-10-08T10:31:03.777Z,22.04
2022-10-08T10:32:03.948Z,22.04
2022-10-08T10:33:04.073Z,21.96
2022-10-08T10:34:04.254Z,21.92
2022-10-08T10:35:04.433Z,21.89
2022-10-08T10:36:04.636Z,21.83
2022-10-08T10:37:04.777Z,21.77
2022-10-08T10:38:04.973Z,21.70
2022-10-08T10:39:05.136Z,21.67
2022-10-08T10:40:05.365Z,21.62
2022-10-08T10:41:05.484Z,21.60
2022-10-08T10:42:05.665Z,21.55
2022-10-08T10:43:05.826Z,21.50
2022-10-08T10:44:06.026Z,21.46
2022-10-08T10:45:06.212Z,21.45
2022-10-08T10:46:06.476Z,21.43
2022-10-08T10:47:06.547Z,21.43
2022-10-08T10:48:06.725Z,21.45
2022-10-08T10:49:06.889Z,21.51
2022-10-08T10:50:07.076Z,21.55
2022-10-08T10:51:07.250Z,21.61
2022-10-08T10:52:07.424Z,21.64
2022-10-08T10:53:07.597Z,21.66
2022-10-08T10:54:07.780Z,21.60
2022-10-08T10:55:07.965Z,21.50
2022-10-08T10:56:08.176Z,21.42
2022-10-08T10:57:08.325Z,21.37
2022-10-08T10:58:08.479Z,21.30
2022-10-08T10:59:08.656Z,21.22
2022-10-08T11:00:08.844Z,21.14
2022-10-08T11:01:09.070Z,21.07
2022-10-08T11:02:09.258Z,21.00
2022-10-08T11:03:09.438Z,20.95
2022-10-08T11:04:09.527Z,20.88
2022-10-08T11:05:09.708Z,20.75
2022-10-08T11:06:09.928Z,20.65
2022-10-08T11:07:10.075Z,20.60
2022-10-08T11:08:10.257Z,20.52
2022-10-08T11:09:10.405Z,20.52
2022-10-08T11:10:10.626Z,20.48
2022-10-08T11:11:10.776Z,20.48
2022-10-08T11:12:10.930Z,20.47
2022-10-08T11:13:11.087Z,20.43
2022-10-08T11:14:11.283Z,20.43
2022-10-08T11:15:11.436Z,20.37
2022-10-08T11:16:11.722Z,20.36
2022-10-08T11:17:11.795Z,20.32
2022-10-08T11:18:11.937Z,20.28
2022-10-08T11:19:12.098Z,20.24
2022-10-08T11:20:12.289Z,20.19
2022-10-08T11:21:12.498Z,20.14
2022-10-08T11:22:12.649Z,20.10
2022-10-08T11:23:12.818Z,20.04
2022-10-08T11:24:12.999Z,19.99
2022-10-08T11:25:13.178Z,19.85
2022-10-08T11:26:22.230Z,19.82
2022-10-08T11:27:14.520Z,19.81
2022-10-08T11:28:13.742Z,19.82
2022-10-08T11:29:13.862Z,19.85
2022-10-08T11:30:14.114Z,19.88
2022-10-08T11:31:14.290Z,19.91
2022-10-08T11:32:14.458Z,19.94
2022-10-08T11:33:14.559Z,19.95
2022-10-08T11:34:14.739Z,20.02
2022-10-08T11:35:14.921Z,20.04
2022-10-08T11:36:15.140Z,20.06
2022-10-08T11:37:15.295Z,20.10
2022-10-08T11:38:15.460Z,20.07
2022-10-08T11:39:15.648Z,20.06
2022-10-08T11:40:15.838Z,20.10
2022-10-08T11:41:16.000Z,20.14
2022-10-08T11:42:16.161Z,20.21
2022-10-08T11:43:16.342Z,20.28
2022-10-08T11:44:16.563Z,20.34
2022-10-08T11:45:16.719Z,20.40
2022-10-08T11:46:16.919Z,20.43
2022-10-08T11:47:17.030Z,20.44
2022-10-08T11:48:17.208Z,20.50
2022-10-08T11:49:17.379Z,20.58
2022-10-08T11:50:17.581Z,20.63
2022-10-08T11:51:17.760Z,20.70
2022-10-08T11:52:17.919Z,20.77
2022-10-08T11:53:18.108Z,20.84
2022-10-08T11:54:18.262Z,20.92
2022-10-08T11:55:18.429Z,21.02
2022-10-08T11:56:18.634Z,21.09
2022-10-08T11:57:18.734Z,21.15
2022-10-08T11:58:18.920Z,21.22
2022-10-08T11:59:19.110Z,21.30
2022-10-08T12:00:19.290Z,21.40
2022-10-08T12:01:19.491Z,21.46
2022-10-08T12:02:19.737Z,21.46
2022-10-08T12:03:19.947Z,21.48
2022-10-08T12:04:20.012Z,21.51
2022-10-08T12:05:20.179Z,21.52
2022-10-08T12:06:20.362Z,21.54
2022-10-08T12:07:20.520Z,21.52
2022-10-08T12:08:20.706Z,21.46
2022-10-08T12:09:20.880Z,21.43
2022-10-08T12:10:21.061Z,21.43
2022-10-08T12:11:21.271Z,21.46
2022-10-08T12:12:21.433Z,21.42
2022-10-08T12:13:21.582Z,21.46
2022-10-08T12:14:21.764Z,21.52
2022-10-08T12:15:21.941Z,21.55
2022-10-08T12:16:22.202Z,21.64
2022-10-08T12:17:22.311Z,21.73
2022-10-08T12:18:26.059Z,21.79
2022-10-08T12:19:22.682Z,21.83
2022-10-08T12:20:22.903Z,21.85
2022-10-08T12:21:23.053Z,21.89
2022-10-08T12:22:23.210Z,21.91
2022-10-08T12:23:23.402Z,21.89
2022-10-08T12:24:23.583Z,21.93
2022-10-08T12:25:23.743Z,21.95
2022-10-08T12:26:23.953Z,21.98
2022-10-08T12:27:24.139Z,22.04
2022-10-08T12:28:24.285Z,22.04
2022-10-08T12:29:24.403Z,22.08
2022-10-08T12:30:24.654Z,22.07
2022-10-08T12:31:24.803Z,21.98
2022-10-08T12:32:24.936Z,21.92
2022-10-08T12:33:25.098Z,21.91
2022-10-08T12:34:25.285Z,21.92
2022-10-08T12:35:25.484Z,21.92
2022-10-08T12:36:25.614Z,21.83
2022-10-08T12:37:25.804Z,21.80
2022-10-08T12:38:25.985Z,21.77
2022-10-08T12:39:26.174Z,21.77
2022-10-08T12:40:26.354Z,21.76
2022-10-08T12:41:26.495Z,21.72
2022-10-08T12:42:26.695Z,21.70
2022-10-08T12:43:26.865Z,21.64
2022-10-08T12:44:27.053Z,21.60
2022-10-08T12:45:27.255Z,21.61
2022-10-08T12:46:27.431Z,21.61
2022-10-08T12:47:27.565Z,21.64
2022-10-08T12:48:27.776Z,21.64
2022-10-08T12:49:27.923Z,21.64
2022-10-08T12:50:28.195Z,21.61
2022-10-08T12:51:28.305Z,21.62
2022-10-08T12:52:28.485Z,21.67
2022-10-08T12:53:28.665Z,21.73
2022-10-08T12:54:28.857Z,21.80